Time,TemperatureF,DewpointF,PressureIn,WindDirection,WindDirectionDegrees,WindSpeedMPH,WindSpeedGustMPH,Humidity,HourlyPrecipIn,Conditions,Clouds,dailyrainin,SoftwareType,DateUTC
2013-01-09 00:00:00,42.4,33.3,29.97,NNE,17,0.0,7.0,70,0.00,,---,0.00,VWS V14.01,2013-01-09 08:00:00,
2013-01-09 00:01:00,42.4,33.3,29.97,NNE,17,0.0,0.0,70,0.00,,---,0.00,VWS V14.01,2013-01-09 08:01:00,
2013-01-09 00:06:00,42.1,33.4,29.97,NNE,28,0.0,0.0,71,0.00,,---,0.00,VWS V14.01,2013-01-09 08:06:00,
2013-01-09 00:11:00,42.5,33.8,29.96,ENE,61,4.0,6.0,71,0.00,,---,0.00,VWS V14.01,2013-01-09 08:11:00,
2013-01-09 00:15:00,43.0,33.5,29.96,ENE,61,4.0,6.0,69,0.00,,---,0.00,VWS V14.01,2013-01-09 08:15:00,
2013-01-09 00:16:00,43.0,33.5,29.96,NE,53,4.0,5.0,69,0.00,,---,0.00,VWS V14.01,2013-01-09 08:16:00,
2013-01-09 00:21:00,42.7,33.2,29.96,ENE,65,5.0,5.0,69,0.00,,---,0.00,VWS V14.01,2013-01-09 08:21:00,
2013-01-09 00:26:00,42.9,33.4,29.96,East,90,6.0,6.0,69,0.00,,---,0.00,VWS V14.01,2013-01-09 08:26:00,
2013-01-09 00:30:00,42.8,33.3,29.95,East,91,7.0,7.0,69,0.00,,---,0.00,VWS V14.01,2013-01-09 08:30:00,
2013-01-09 00:31:00,42.9,33.4,29.95,East,88,4.0,7.0,69,0.00,,---,0.00,VWS V14.01,2013-01-09 08:31:00,
2013-01-09 00:36:00,43.2,33.7,29.95,ESE,102,5.0,7.0,69,0.00,,---,0.00,VWS V14.01,2013-01-09 08:36:00,
2013-01-09 00:41:00,43.9,34.0,29.95,East,98,4.0,8.0,68,0.00,,---,0.00,VWS V14.01,2013-01-09 08:41:00,
2013-01-09 00:45:00,44.1,33.9,29.94,ESE,102,7.0,9.0,67,0.00,,---,0.00,VWS V14.01,2013-01-09 08:45:00,
2013-01-09 00:46:00,44.1,33.9,29.94,East,98,6.0,7.0,67,0.00,,---,0.00,VWS V14.01,2013-01-09 08:46:00,
2013-01-09 00:51:00,43.8,33.9,29.95,ESE,106,8.0,11.0,68,0.00,,---,0.00,VWS V14.01,2013-01-09 08:51:00,
2013-01-09 00:56:00,43.5,34.0,29.94,ESE,102,7.0,11.0,69,0.00,,---,0.00,VWS V14.01,2013-01-09 08:56:00,
2013-01-09 01:00:00,43.6,33.8,29.94,East,100,9.0,12.0,68,0.00,,---,0.00,VWS V14.01,2013-01-09 09:00:00,
2013-01-09 01:01:00,43.8,33.9,29.94,East,99,8.0,9.0,68,0.00,,---,0.00,VWS V14.01,2013-01-09 09:01:00,
2013-01-09 01:06:00,43.8,33.9,29.94,East,101,8.0,9.0,68,0.00,,---,0.00,VWS V14.01,2013-01-09 09:06:00,
2013-01-09 01:11:00,43.4,33.9,29.94,ESE,105,11.0,11.0,69,0.00,,---,0.00,VWS V14.01,2013-01-09 09:11:00,
2013-01-09 01:15:00,43.6,34.1,29.93,East,96,9.0,11.0,69,0.00,,---,0.00,VWS V14.01,2013-01-09 09:15:00,
2013-01-09 01:16:00,43.6,33.8,29.93,East,91,6.0,9.0,68,0.00,,---,0.00,VWS V14.01,2013-01-09 09:16:00,
2013-01-09 01:21:00,43.7,33.8,29.93,ENE,78,5.0,9.0,68,0.00,,---,0.00,VWS V14.01,2013-01-09 09:21:00,
2013-01-09 01:26:00,43.7,33.5,29.93,East,81,5.0,9.0,67,0.00,,---,0.00,VWS V14.01,2013-01-09 09:26:00,
2013-01-09 01:30:00,43.3,33.5,29.93,East,79,4.0,9.0,68,0.00,,---,0.00,VWS V14.01,2013-01-09 09:30:00,
2013-01-09 01:31:00,43.2,33.4,29.92,East,81,5.0,6.0,68,0.00,,---,0.00,VWS V14.01,2013-01-09 09:31:00,
2013-01-09 01:36:00,43.0,33.5,29.93,East,82,3.0,6.0,69,0.00,,---,0.00,VWS V14.01,2013-01-09 09:36:00,
2013-01-09 01:41:00,42.6,33.2,29.93,NE,53,4.0,7.0,69,0.00,,---,0.00,VWS V14.01,2013-01-09 09:41:00,
2013-01-09 01:45:00,42.4,33.3,29.92,NE,49,2.0,7.0,70,0.00,,---,0.00,VWS V14.01,2013-01-09 09:45:00,
2013-01-09 01:46:00,42.3,33.2,29.92,NE,51,4.0,4.0,70,0.00,,---,0.00,VWS V14.01,2013-01-09 09:46:00,
2013-01-09 01:51:00,41.6,32.9,29.91,NE,55,3.0,5.0,71,0.00,,---,0.00,VWS V14.01,2013-01-09 09:51:00,
2013-01-09 01:56:00,41.8,33.1,29.91,ENE,63,2.0,5.0,71,0.00,,---,0.00,VWS V14.01,2013-01-09 09:56:00,
2013-01-09 02:00:00,42.0,33.3,29.91,ENE,71,1.0,5.0,71,0.00,,---,0.00,VWS V14.01,2013-01-09 10:00:00,
2013-01-09 02:01:00,42.0,33.3,29.91,ENE,71,1.0,2.0,71,0.00,,---,0.00,VWS V14.01,2013-01-09 10:01:00,
2013-01-09 02:06:00,42.1,33.4,29.91,East,87,4.0,6.0,71,0.00,,---,0.00,VWS V14.01,2013-01-09 10:06:00,
2013-01-09 02:11:00,42.2,33.1,29.91,ENE,75,1.0,6.0,70,0.00,,---,0.00,VWS V14.01,2013-01-09 10:11:00,
2013-01-09 02:15:00,42.0,32.9,29.91,ENE,75,2.0,6.0,70,0.00,,---,0.00,VWS V14.01,2013-01-09 10:15:00,
2013-01-09 02:16:00,41.9,32.8,29.91,ENE,74,4.0,4.0,70,0.00,,---,0.00,VWS V14.01,2013-01-09 10:16:00,
2013-01-09 02:21:00,42.2,33.1,29.90,ENE,72,5.0,6.0,70,0.00,,---,0.00,VWS V14.01,2013-01-09 10:21:00,
2013-01-09 02:26:00,41.9,32.8,29.89,ENE,67,5.0,8.0,70,0.00,,---,0.00,VWS V14.01,2013-01-09 10:26:00,
2013-01-09 02:30:00,41.4,32.7,29.90,ENE,66,4.0,8.0,71,0.00,,---,0.00,VWS V14.01,2013-01-09 10:30:00,
2013-01-09 02:31:00,41.5,32.8,29.90,ENE,71,5.0,6.0,71,0.00,,---,0.00,VWS V14.01,2013-01-09 10:31:00,
2013-01-09 02:36:00,42.3,33.2,29.90,ENE,78,4.0,6.0,70,0.00,,---,0.00,VWS V14.01,2013-01-09 10:36:00,
2013-01-09 02:41:00,42.8,33.0,29.90,East,84,6.0,8.0,68,0.00,,---,0.00,VWS V14.01,2013-01-09 10:41:00,
2013-01-09 02:45:00,43.1,33.3,29.90,East,86,5.0,8.0,68,0.00,,---,0.00,VWS V14.01,2013-01-09 10:45:00,
2013-01-09 02:46:00,43.0,33.2,29.90,East,86,6.0,6.0,68,0.00,,---,0.00,VWS V14.01,2013-01-09 10:46:00,
2013-01-09 02:51:00,43.1,33.3,29.91,East,86,1.0,6.0,68,0.00,,---,0.00,VWS V14.01,2013-01-09 10:51:00,
2013-01-09 02:56:00,43.0,33.2,29.90,East,86,0.0,6.0,68,0.00,,---,0.00,VWS V14.01,2013-01-09 10:56:00,
2013-01-09 03:00:00,42.7,32.9,29.90,East,86,0.0,6.0,68,0.00,,---,0.00,VWS V14.01,2013-01-09 11:00:00,
2013-01-09 03:01:00,42.7,32.9,29.90,East,86,0.0,0.0,68,0.00,,---,0.00,VWS V14.01,2013-01-09 11:01:00,
2013-01-09 03:06:00,42.3,32.5,29.90,East,86,0.0,0.0,68,0.00,,---,0.00,VWS V14.01,2013-01-09 11:06:00,
2013-01-09 03:11:00,42.3,32.9,29.90,East,86,0.0,0.0,69,0.00,,---,0.00,VWS V14.01,2013-01-09 11:11:00,
2013-01-09 03:15:00,42.3,32.9,29.90,East,86,0.0,0.0,69,0.00,,---,0.00,VWS V14.01,2013-01-09 11:15:00,
2013-01-09 03:16:00,42.2,32.8,29.90,East,86,0.0,0.0,69,0.00,,---,0.00,VWS V14.01,2013-01-09 11:16:00,
2013-01-09 03:21:00,41.4,32.7,29.91,East,86,0.0,0.0,71,0.00,,---,0.00,VWS V14.01,2013-01-09 11:21:00,
2013-01-09 03:26:00,40.7,32.4,29.91,East,86,0.0,0.0,72,0.00,,---,0.00,VWS V14.01,2013-01-09 11:26:00,
2013-01-09 03:30:00,40.8,32.5,29.90,North,360,0.0,0.0,72,0.00,,---,0.00,VWS V14.01,2013-01-09 11:30:00,
2013-01-09 03:31:00,40.9,32.6,29.90,North,360,0.0,0.0,72,0.00,,---,0.00,VWS V14.01,2013-01-09 11:31:00,
2013-01-09 03:36:00,40.7,32.4,29.89,NW,305,2.0,3.0,72,0.00,,---,0.00,VWS V14.01,2013-01-09 11:36:00,
2013-01-09 03:41:00,40.1,32.5,29.89,NE,44,0.0,4.0,74,0.00,,---,0.00,VWS V14.01,2013-01-09 11:41:00,
2013-01-09 03:45:00,39.7,32.1,29.89,NE,46,0.0,4.0,74,0.00,,---,0.00,VWS V14.01,2013-01-09 11:45:00,
2013-01-09 03:46:00,39.6,32.0,29.88,NE,46,0.0,0.0,74,0.00,,---,0.00,VWS V14.01,2013-01-09 11:46:00,
2013-01-09 03:51:00,39.6,32.3,29.87,NE,46,0.0,0.0,75,0.00,,---,0.00,VWS V14.01,2013-01-09 11:51:00,
2013-01-09 03:56:00,40.0,32.4,29.86,NE,46,0.0,0.0,74,0.00,,---,0.00,VWS V14.01,2013-01-09 11:56:00,
2013-01-09 04:00:00,40.0,32.4,29.87,NE,46,0.0,1.0,74,0.00,,---,0.00,VWS V14.01,2013-01-09 12:00:00,
2013-01-09 04:01:00,39.9,32.3,29.87,NE,46,0.0,0.0,74,0.00,,---,0.00,VWS V14.01,2013-01-09 12:01:00,
2013-01-09 04:06:00,39.8,32.5,29.87,NE,46,0.0,0.0,75,0.00,,---,0.00,VWS V14.01,2013-01-09 12:06:00,
2013-01-09 04:11:00,40.4,32.8,29.86,NE,46,0.0,0.0,74,0.00,,---,0.00,VWS V14.01,2013-01-09 12:11:00,
2013-01-09 04:15:00,40.2,32.6,29.86,NE,46,0.0,0.0,74,0.00,,---,0.00,VWS V14.01,2013-01-09 12:15:00,
2013-01-09 04:16:00,40.2,32.6,29.86,NE,46,0.0,0.0,74,0.00,,---,0.00,VWS V14.01,2013-01-09 12:16:00,
2013-01-09 04:21:00,40.2,32.6,29.86,NE,48,2.0,2.0,74,0.00,,---,0.00,VWS V14.01,2013-01-09 12:21:00,
2013-01-09 04:26:00,41.0,32.7,29.84,NE,51,4.0,4.0,72,0.00,,---,0.00,VWS V14.01,2013-01-09 12:26:00,
2013-01-09 04:30:00,41.9,32.5,29.85,NE,51,2.0,4.0,69,0.00,,---,0.00,VWS V14.01,2013-01-09 12:30:00,
2013-01-09 04:31:00,42.4,33.0,29.85,NE,51,2.0,3.0,69,0.00,,---,0.00,VWS V14.01,2013-01-09 12:31:00,
2013-01-09 04:36:00,41.4,32.7,29.85,WSW,242,4.0,4.0,71,0.00,,---,0.00,VWS V14.01,2013-01-09 12:36:00,
2013-01-09 04:41:00,39.5,32.2,29.84,WSW,246,2.0,5.0,75,0.00,,---,0.00,VWS V14.01,2013-01-09 12:41:00,
2013-01-09 04:45:00,39.1,32.2,29.84,WSW,246,0.0,5.0,76,0.00,,---,0.00,VWS V14.01,2013-01-09 12:45:00,
2013-01-09 04:46:00,39.0,32.1,29.84,WSW,246,0.0,0.0,76,0.00,,---,0.00,VWS V14.01,2013-01-09 12:46:00,
2013-01-09 04:51:00,38.3,32.0,29.84,WSW,248,4.0,5.0,78,0.00,,---,0.00,VWS V14.01,2013-01-09 12:51:00,
2013-01-09 04:56:00,37.7,31.8,29.84,WSW,240,0.0,5.0,79,0.00,,---,0.00,VWS V14.01,2013-01-09 12:56:00,
2013-01-09 05:00:00,37.8,31.9,29.84,WSW,254,0.0,5.0,79,0.00,,---,0.00,VWS V14.01,2013-01-09 13:00:00,
2013-01-09 05:01:00,37.9,32.3,29.84,WSW,254,0.0,0.0,80,0.00,,---,0.00,VWS V14.01,2013-01-09 13:01:00,
2013-01-09 05:06:00,38.2,32.3,29.84,WSW,254,0.0,0.0,79,0.00,,---,0.00,VWS V14.01,2013-01-09 13:06:00,
2013-01-09 05:11:00,38.7,32.1,29.84,WSW,254,2.0,2.0,77,0.00,,---,0.00,VWS V14.01,2013-01-09 13:11:00,
2013-01-09 05:15:00,39.4,32.5,29.84,WSW,251,0.0,4.0,76,0.00,,---,0.00,VWS V14.01,2013-01-09 13:15:00,
2013-01-09 05:16:00,39.6,32.7,29.84,WSW,251,0.0,0.0,76,0.00,,---,0.00,VWS V14.01,2013-01-09 13:16:00,
2013-01-09 05:21:00,39.7,32.4,29.84,WSW,247,0.0,2.0,75,0.00,,---,0.00,VWS V14.01,2013-01-09 13:21:00,
2013-01-09 05:26:00,39.9,32.6,29.83,SW,219,1.0,5.0,75,0.00,,---,0.00,VWS V14.01,2013-01-09 13:26:00,
2013-01-09 05:30:00,41.2,32.9,29.84,SSE,154,14.0,14.0,72,0.00,,---,0.00,VWS V14.01,2013-01-09 13:30:00,
2013-01-09 05:31:00,41.8,33.1,29.84,SW,215,5.0,14.0,71,0.00,,---,0.00,VWS V14.01,2013-01-09 13:31:00,
2013-01-09 05:36:00,44.3,33.7,29.83,South,174,17.0,31.0,66,0.00,,---,0.00,VWS V14.01,2013-01-09 13:36:00,
2013-01-09 05:41:00,47.3,33.7,29.83,SSE,163,21.0,35.0,59,0.01,,---,0.01,VWS V14.01,2013-01-09 13:41:00,
2013-01-09 05:45:00,46.8,33.7,29.83,South,176,16.0,35.0,60,0.01,,---,0.01,VWS V14.01,2013-01-09 13:45:00,
2013-01-09 05:46:00,46.6,33.5,29.83,South,179,17.0,20.0,60,0.01,,---,0.01,VWS V14.01,2013-01-09 13:46:00,
2013-01-09 05:51:00,45.8,33.5,29.83,South,180,14.0,20.0,62,0.01,,---,0.01,VWS V14.01,2013-01-09 13:51:00,
2013-01-09 05:56:00,45.5,33.7,29.82,South,180,15.0,22.0,63,0.01,,---,0.01,VWS V14.01,2013-01-09 13:56:00,
2013-01-09 06:00:00,45.4,33.6,29.81,South,190,15.0,22.0,63,0.01,,---,0.01,VWS V14.01,2013-01-09 14:00:00,
2013-01-09 06:01:00,45.5,33.7,29.81,South,183,14.0,20.0,63,0.01,,---,0.01,VWS V14.01,2013-01-09 14:01:00,
2013-01-09 06:06:00,46.0,33.7,29.80,SSE,158,16.0,25.0,62,0.01,,---,0.01,VWS V14.01,2013-01-09 14:06:00,
2013-01-09 06:11:00,45.9,33.6,29.80,SSE,161,12.0,25.0,62,0.01,,---,0.01,VWS V14.01,2013-01-09 14:11:00,
2013-01-09 06:15:00,46.0,33.7,29.79,SSE,167,15.0,25.0,62,0.01,,---,0.01,VWS V14.01,2013-01-09 14:15:00,
2013-01-09 06:16:00,45.8,33.5,29.79,SSE,159,13.0,15.0,62,0.01,,---,0.01,VWS V14.01,2013-01-09 14:16:00,
2013-01-09 06:21:00,45.3,33.5,29.79,SSE,149,12.0,19.0,63,0.01,,---,0.01,VWS V14.01,2013-01-09 14:21:00,
2013-01-09 06:26:00,45.2,33.8,29.79,SSE,156,17.0,19.0,64,0.01,,---,0.01,VWS V14.01,2013-01-09 14:26:00,
2013-01-09 06:30:00,46.0,33.7,29.78,SE,134,8.0,19.0,62,0.01,,---,0.01,VWS V14.01,2013-01-09 14:30:00,
2013-01-09 06:31:00,46.2,33.5,29.78,SE,146,14.0,19.0,61,0.01,,---,0.01,VWS V14.01,2013-01-09 14:31:00,
2013-01-09 06:36:00,45.9,33.6,29.78,SSE,151,10.0,19.0,62,0.01,,---,0.01,VWS V14.01,2013-01-09 14:36:00,
2013-01-09 06:41:00,45.9,33.6,29.77,SE,130,9.0,21.0,62,0.01,,---,0.01,VWS V14.01,2013-01-09 14:41:00,
2013-01-09 06:45:00,45.8,33.5,29.77,ESE,117,11.0,21.0,62,0.01,,---,0.01,VWS V14.01,2013-01-09 14:45:00,
2013-01-09 06:46:00,45.6,33.8,29.77,ESE,113,9.0,11.0,63,0.00,,---,0.01,VWS V14.01,2013-01-09 14:46:00,
2013-01-09 06:51:00,45.8,33.5,29.77,ESE,111,8.0,16.0,62,0.00,,---,0.01,VWS V14.01,2013-01-09 14:51:00,
2013-01-09 06:56:00,44.9,33.5,29.76,East,101,11.0,16.0,64,0.00,,---,0.01,VWS V14.01,2013-01-09 14:56:00,
2013-01-09 07:00:00,45.2,33.4,29.75,East,98,5.0,16.0,63,0.00,,---,0.01,VWS V14.01,2013-01-09 15:00:00,
2013-01-09 07:01:00,45.1,33.3,29.75,ESE,103,7.0,7.0,63,0.00,,---,0.01,VWS V14.01,2013-01-09 15:01:00,
2013-01-09 07:06:00,44.9,33.1,29.76,ESE,119,11.0,11.0,63,0.00,,---,0.01,VWS V14.01,2013-01-09 15:06:00,
2013-01-09 07:11:00,45.0,32.8,29.75,ESE,113,11.0,16.0,62,0.00,,---,0.01,VWS V14.01,2013-01-09 15:11:00,
2013-01-09 07:15:00,45.0,32.8,29.75,ESE,107,11.0,16.0,62,0.00,,---,0.01,VWS V14.01,2013-01-09 15:15:00,
2013-01-09 07:16:00,45.0,32.8,29.75,ESE,105,11.0,15.0,62,0.00,,---,0.01,VWS V14.01,2013-01-09 15:16:00,
2013-01-09 07:21:00,45.0,32.8,29.75,ESE,105,13.0,16.0,62,0.00,,---,0.01,VWS V14.01,2013-01-09 15:21:00,
2013-01-09 07:26:00,45.0,32.8,29.75,ESE,105,13.0,16.0,62,0.00,,---,0.01,VWS V14.01,2013-01-09 15:26:00,
2013-01-09 07:30:00,45.0,32.8,29.75,ESE,105,13.0,16.0,62,0.00,,---,0.01,VWS V14.01,2013-01-09 15:30:00,
2013-01-09 07:31:00,45.0,32.8,29.75,ESE,105,13.0,13.0,62,0.00,,---,0.01,VWS V14.01,2013-01-09 15:31:00,
2013-01-09 07:36:00,45.0,32.8,29.74,ESE,105,13.0,13.0,62,0.00,,---,0.01,VWS V14.01,2013-01-09 15:36:00,
2013-01-09 07:41:00,45.0,32.8,29.74,ESE,105,13.0,13.0,62,0.00,,---,0.01,VWS V14.01,2013-01-09 15:41:00,
2013-01-09 07:45:00,45.0,32.8,29.74,ESE,105,13.0,13.0,62,0.00,,---,0.01,VWS V14.01,2013-01-09 15:45:00,
2013-01-09 07:46:00,45.0,32.8,29.74,ESE,105,13.0,13.0,62,0.00,,---,0.01,VWS V14.01,2013-01-09 15:46:00,
2013-01-09 07:51:00,45.0,32.8,29.74,ESE,105,13.0,13.0,62,0.00,,---,0.01,VWS V14.01,2013-01-09 15:51:00,
2013-01-09 07:56:00,45.0,32.8,29.74,ESE,105,13.0,13.0,62,0.00,,---,0.01,VWS V14.01,2013-01-09 15:56:00,
2013-01-09 08:00:00,45.0,32.8,29.74,ESE,105,13.0,13.0,62,0.00,,---,0.01,VWS V14.01,2013-01-09 16:00:00,
2013-01-09 08:01:00,45.0,32.8,29.73,ESE,105,13.0,13.0,62,0.00,,---,0.01,VWS V14.01,2013-01-09 16:01:00,
2013-01-09 08:06:00,45.0,32.8,29.74,ESE,105,13.0,13.0,62,0.00,,---,0.01,VWS V14.01,2013-01-09 16:06:00,
2013-01-09 08:11:00,45.0,32.8,29.73,ESE,105,13.0,13.0,62,0.00,,---,0.01,VWS V14.01,2013-01-09 16:11:00,
2013-01-09 08:15:00,45.0,32.8,29.73,ESE,105,13.0,13.0,62,0.00,,---,0.01,VWS V14.01,2013-01-09 16:15:00,
2013-01-09 08:16:00,45.0,32.8,29.73,ESE,105,13.0,13.0,62,0.00,,---,0.01,VWS V14.01,2013-01-09 16:16:00,
2013-01-09 08:21:00,46.1,33.4,29.73,SE,137,7.0,13.0,61,0.00,,---,0.01,VWS V14.01,2013-01-09 16:21:00,
2013-01-09 08:26:00,45.5,33.7,29.72,SE,145,6.0,13.0,63,0.00,,---,0.01,VWS V14.01,2013-01-09 16:26:00,
2013-01-09 08:30:00,45.4,33.2,29.73,South,173,8.0,17.0,62,0.00,,---,0.01,VWS V14.01,2013-01-09 16:30:00,
2013-01-09 08:31:00,45.5,33.2,29.73,SSE,159,4.0,16.0,62,0.00,,---,0.01,VWS V14.01,2013-01-09 16:31:00,
2013-01-09 08:36:00,46.6,33.0,29.72,South,171,15.0,20.0,59,0.00,,---,0.01,VWS V14.01,2013-01-09 16:36:00,
2013-01-09 08:41:00,46.1,33.0,29.72,SSE,148,10.0,20.0,60,0.00,,---,0.01,VWS V14.01,2013-01-09 16:41:00,
2013-01-09 08:45:00,47.0,33.0,29.72,SE,131,18.0,31.0,58,0.00,,---,0.01,VWS V14.01,2013-01-09 16:45:00,
2013-01-09 08:46:00,46.9,33.3,29.72,SSE,165,22.0,26.0,59,0.00,,---,0.01,VWS V14.01,2013-01-09 16:46:00,
2013-01-09 08:51:00,47.0,33.4,29.71,SSE,156,15.0,34.0,59,0.00,,---,0.01,VWS V14.01,2013-01-09 16:51:00,
2013-01-09 08:56:00,46.8,32.8,29.71,SSE,152,28.0,38.0,58,0.00,,---,0.01,VWS V14.01,2013-01-09 16:56:00,
2013-01-09 09:00:00,47.0,33.0,29.71,SE,136,28.0,38.0,58,0.00,,---,0.01,VWS V14.01,2013-01-09 17:00:00,
2013-01-09 09:01:00,46.9,32.9,29.71,SSE,161,12.0,28.0,58,0.00,,---,0.01,VWS V14.01,2013-01-09 17:01:00,
2013-01-09 09:06:00,46.8,33.2,29.71,SSE,154,26.0,28.0,59,0.00,,---,0.01,VWS V14.01,2013-01-09 17:06:00,
2013-01-09 09:11:00,46.7,33.2,29.71,SSW,193,21.0,30.0,59,0.00,,---,0.01,VWS V14.01,2013-01-09 17:11:00,
2013-01-09 09:15:00,42.0,32.6,29.74,WSW,242,17.0,26.0,69,0.00,,---,0.01,VWS V14.01,2013-01-09 17:15:00,
2013-01-09 09:22:00,47.2,33.2,29.71,South,170,15.0,15.0,58,0.00,,---,0.01,VWS V14.01,2013-01-09 17:22:00,
2013-01-09 09:27:00,46.6,33.5,29.71,SSE,152,33.0,34.0,60,0.00,,---,0.01,VWS V14.01,2013-01-09 17:27:00,
2013-01-09 09:30:00,39.3,33.0,29.74,WSW,238,14.0,24.0,78,0.00,,---,0.01,VWS V14.01,2013-01-09 17:30:00,
2013-01-09 09:32:00,46.8,33.2,29.71,SSE,151,17.0,26.0,59,0.00,,---,0.01,VWS V14.01,2013-01-09 17:32:00,
2013-01-09 09:37:00,46.8,33.2,29.71,SSE,162,16.0,30.0,59,0.00,,---,0.01,VWS V14.01,2013-01-09 17:37:00,
2013-01-09 09:42:00,46.6,33.0,29.71,SSE,160,13.0,30.0,59,0.00,,---,0.01,VWS V14.01,2013-01-09 17:42:00,
2013-01-09 09:45:00,37.9,32.0,29.75,SW,233,17.0,26.0,79,0.00,,---,0.01,VWS V14.01,2013-01-09 17:45:00,
2013-01-09 09:47:00,46.5,33.4,29.71,South,180,15.0,17.0,60,0.00,,---,0.01,VWS V14.01,2013-01-09 17:47:00,
2013-01-09 09:52:00,46.9,33.3,29.71,SSW,198,16.0,28.0,59,0.00,,---,0.01,VWS V14.01,2013-01-09 17:52:00,
2013-01-09 09:57:00,46.9,33.3,29.71,South,189,22.0,28.0,59,0.00,,---,0.01,VWS V14.01,2013-01-09 17:57:00,
2013-01-09 10:00:00,36.6,31.9,29.76,WSW,238,14.0,25.0,83,0.00,,---,0.01,VWS V14.01,2013-01-09 18:00:00,
2013-01-09 10:02:00,46.5,33.4,29.72,South,174,15.0,24.0,60,0.00,,---,0.01,VWS V14.01,2013-01-09 18:02:00,
2013-01-09 10:07:00,46.1,34.2,29.73,SW,223,6.0,26.0,63,0.00,,---,0.01,VWS V14.01,2013-01-09 18:07:00,
2013-01-09 10:12:00,43.7,33.1,29.74,SW,232,6.0,26.0,66,0.00,,---,0.01,VWS V14.01,2013-01-09 18:12:00,
2013-01-09 10:15:00,37.5,31.3,29.75,WSW,240,6.0,24.0,78,0.00,,---,0.01,VWS V14.01,2013-01-09 18:15:00,
2013-01-09 10:17:00,41.2,32.9,29.74,WSW,244,21.0,24.0,72,0.00,,---,0.01,VWS V14.01,2013-01-09 18:17:00,
2013-01-09 10:22:00,40.1,32.8,29.75,SW,229,14.0,24.0,75,0.00,,---,0.01,VWS V14.01,2013-01-09 18:22:00,
2013-01-09 10:27:00,39.6,33.3,29.74,WSW,238,15.0,24.0,78,0.00,,---,0.01,VWS V14.01,2013-01-09 18:27:00,
2013-01-09 10:30:00,38.8,30.6,29.74,SW,228,15.0,26.0,72,0.00,,---,0.01,VWS V14.01,2013-01-09 18:30:00,
2013-01-09 10:32:00,39.1,32.8,29.74,WSW,246,16.0,22.0,78,0.00,,---,0.01,VWS V14.01,2013-01-09 18:32:00,
2013-01-09 10:37:00,38.5,32.2,29.75,WSW,240,21.0,24.0,78,0.00,,---,0.01,VWS V14.01,2013-01-09 18:37:00,
2013-01-09 10:41:00,38.4,32.2,29.75,WSW,239,22.0,24.0,78,0.00,,---,0.01,VWS V14.01,2013-01-09 18:41:00,
2013-01-09 10:44:00,38.1,32.2,29.75,WSW,240,15.0,26.0,79,0.00,,---,0.01,VWS V14.01,2013-01-09 18:44:00,
2013-01-09 10:45:00,38.0,32.1,29.75,WSW,237,16.0,26.0,79,0.00,,---,0.01,VWS V14.01,2013-01-09 18:45:00,
2013-01-09 10:48:00,37.6,32.3,29.75,WSW,240,16.0,24.0,81,0.00,,---,0.01,VWS V14.01,2013-01-09 18:48:00,
2013-01-09 10:53:00,36.8,32.1,29.76,SW,227,25.0,25.0,83,0.00,,---,0.01,VWS V14.01,2013-01-09 18:53:00,
2013-01-09 10:58:00,36.5,31.8,29.76,SW,234,19.0,25.0,83,0.00,,---,0.01,VWS V14.01,2013-01-09 18:58:00,
2013-01-09 11:00:00,38.8,29.9,29.75,SW,236,14.0,24.0,70,0.00,,---,0.01,VWS V14.01,2013-01-09 19:00:00,
2013-01-09 11:03:00,36.8,31.8,29.76,WSW,246,12.0,24.0,82,0.00,,---,0.01,VWS V14.01,2013-01-09 19:03:00,
2013-01-09 11:08:00,36.9,31.9,29.75,WSW,246,11.0,24.0,82,0.00,,---,0.01,VWS V14.01,2013-01-09 19:08:00,
2013-01-09 11:13:00,37.2,31.6,29.75,WSW,242,13.0,24.0,80,0.00,,---,0.01,VWS V14.01,2013-01-09 19:13:00,
2013-01-09 11:15:00,38.9,30.0,29.75,SW,221,6.0,19.0,70,0.00,,---,0.01,VWS V14.01,2013-01-09 19:15:00,
2013-01-09 11:18:00,37.9,31.0,29.75,SW,234,7.0,19.0,76,0.00,,---,0.01,VWS V14.01,2013-01-09 19:18:00,
2013-01-09 11:23:00,38.3,30.8,29.75,SW,221,16.0,19.0,74,0.00,,---,0.01,VWS V14.01,2013-01-09 19:23:00,
2013-01-09 11:28:00,38.7,30.1,29.74,SW,230,19.0,20.0,71,0.00,,---,0.01,VWS V14.01,2013-01-09 19:28:00,
2013-01-09 11:30:00,38.8,30.2,29.75,SSW,201,2.0,15.0,71,0.00,,---,0.01,VWS V14.01,2013-01-09 19:30:00,
2013-01-09 11:33:00,38.9,30.3,29.74,SW,219,18.0,23.0,71,0.00,,---,0.01,VWS V14.01,2013-01-09 19:33:00,
2013-01-09 11:38:00,38.9,30.3,29.75,SW,234,18.0,30.0,71,0.00,,---,0.01,VWS V14.01,2013-01-09 19:38:00,
2013-01-09 11:44:00,38.8,30.2,29.74,WSW,238,18.0,30.0,71,0.00,,---,0.01,VWS V14.01,2013-01-09 19:44:00,
2013-01-09 11:45:00,39.0,30.4,29.75,SW,219,1.0,20.0,71,0.00,,---,0.01,VWS V14.01,2013-01-09 19:45:00,
2013-01-09 11:49:00,38.7,30.1,29.74,SW,229,13.0,22.0,71,0.00,,---,0.01,VWS V14.01,2013-01-09 19:49:00,
2013-01-09 11:54:00,38.7,29.8,29.75,SW,214,0.0,23.0,70,0.00,,---,0.01,VWS V14.01,2013-01-09 19:54:00,
2013-01-09 11:59:00,38.8,29.9,29.75,SW,230,14.0,24.0,70,0.00,,---,0.01,VWS V14.01,2013-01-09 19:59:00,
2013-01-09 12:00:00,39.0,30.1,29.75,WSW,238,19.0,22.0,70,0.00,,---,0.01,VWS V14.01,2013-01-09 20:00:00,
2013-01-09 12:04:00,38.7,30.1,29.75,WSW,250,7.0,18.0,71,0.00,,---,0.01,VWS V14.01,2013-01-09 20:04:00,
2013-01-09 12:09:00,38.7,30.5,29.75,SW,226,5.0,19.0,72,0.00,,---,0.01,VWS V14.01,2013-01-09 20:09:00,
2013-01-09 12:14:00,38.8,29.9,29.75,SSW,213,4.0,19.0,70,0.00,,---,0.01,VWS V14.01,2013-01-09 20:14:00,
2013-01-09 12:15:00,39.0,29.7,29.75,SW,215,6.0,21.0,69,0.00,,---,0.01,VWS V14.01,2013-01-09 20:15:00,
2013-01-09 12:19:00,38.8,30.2,29.75,SW,222,3.0,8.0,71,0.00,,---,0.01,VWS V14.01,2013-01-09 20:19:00,
2013-01-09 12:24:00,38.8,30.6,29.75,SSW,209,3.0,10.0,72,0.00,,---,0.01,VWS V14.01,2013-01-09 20:24:00,
2013-01-09 12:29:00,38.8,30.2,29.75,SW,230,10.0,15.0,71,0.00,,---,0.01,VWS V14.01,2013-01-09 20:29:00,
2013-01-09 12:30:00,38.8,29.5,29.75,SW,218,11.0,18.0,69,0.00,,---,0.01,VWS V14.01,2013-01-09 20:30:00,
2013-01-09 12:34:00,38.9,30.3,29.75,SSW,206,2.0,11.0,71,0.00,,---,0.01,VWS V14.01,2013-01-09 20:34:00,
2013-01-09 12:39:00,38.9,30.0,29.75,SSW,210,7.0,20.0,70,0.00,,---,0.01,VWS V14.01,2013-01-09 20:39:00,
2013-01-09 12:44:00,38.9,30.0,29.75,SW,234,9.0,20.0,70,0.00,,---,0.01,VWS V14.01,2013-01-09 20:44:00,
2013-01-09 12:45:00,38.6,29.0,29.76,SW,228,20.0,22.0,68,0.00,,---,0.01,VWS V14.01,2013-01-09 20:45:00,
2013-01-09 12:49:00,38.9,30.3,29.75,SW,236,10.0,14.0,71,0.00,,---,0.01,VWS V14.01,2013-01-09 20:49:00,
2013-01-09 12:54:00,38.9,30.3,29.75,WSW,240,7.0,14.0,71,0.00,,---,0.01,VWS V14.01,2013-01-09 20:54:00,
2013-01-09 12:59:00,39.0,30.4,29.75,SW,223,12.0,16.0,71,0.00,,---,0.01,VWS V14.01,2013-01-09 20:59:00,
2013-01-09 13:00:00,38.1,29.2,29.76,SW,233,6.0,20.0,70,0.00,,---,0.01,VWS V14.01,2013-01-09 21:00:00,
2013-01-09 13:04:00,39.1,29.8,29.75,SW,234,18.0,21.0,69,0.00,,---,0.01,VWS V14.01,2013-01-09 21:04:00,
2013-01-09 13:09:00,39.1,29.5,29.75,SW,225,3.0,21.0,68,0.00,,---,0.01,VWS V14.01,2013-01-09 21:09:00,
2013-01-09 13:14:00,39.0,29.7,29.75,SSW,205,9.0,21.0,69,0.00,,---,0.01,VWS V14.01,2013-01-09 21:14:00,
2013-01-09 13:15:00,37.7,28.1,29.77,SW,219,3.0,16.0,68,0.00,,---,0.01,VWS V14.01,2013-01-09 21:15:00,
2013-01-09 13:19:00,38.9,29.6,29.75,SW,229,9.0,11.0,69,0.00,,---,0.01,VWS V14.01,2013-01-09 21:19:00,
2013-01-09 13:24:00,38.9,29.6,29.75,SW,232,14.0,15.0,69,0.00,,---,0.01,VWS V14.01,2013-01-09 21:24:00,
2013-01-09 13:29:00,38.8,29.5,29.75,SW,236,11.0,18.0,69,0.00,,---,0.01,VWS V14.01,2013-01-09 21:29:00,
2013-01-09 13:30:00,37.1,28.9,29.77,SW,219,9.0,19.0,72,0.00,,---,0.01,VWS V14.01,2013-01-09 21:30:00,
2013-01-09 13:34:00,38.7,29.4,29.76,SW,214,4.0,19.0,69,0.00,,---,0.01,VWS V14.01,2013-01-09 21:34:00,
2013-01-09 13:39:00,38.8,28.8,29.75,WSW,253,9.0,22.0,67,0.00,,---,0.01,VWS V14.01,2013-01-09 21:39:00,
2013-01-09 13:44:00,38.6,29.0,29.76,SW,229,10.0,22.0,68,0.00,,---,0.01,VWS V14.01,2013-01-09 21:44:00,
2013-01-09 13:45:00,37.1,29.3,29.77,SW,229,9.0,15.0,73,0.00,,---,0.01,VWS V14.01,2013-01-09 21:45:00,
2013-01-09 13:49:00,38.6,29.7,29.76,SSW,198,2.0,20.0,70,0.00,,---,0.01,VWS V14.01,2013-01-09 21:49:00,
2013-01-09 13:54:00,38.4,29.1,29.76,WSW,238,6.0,20.0,69,0.00,,---,0.01,VWS V14.01,2013-01-09 21:54:00,
2013-01-09 13:59:00,38.2,29.3,29.76,SSW,213,7.0,20.0,70,0.00,,---,0.01,VWS V14.01,2013-01-09 21:59:00,
2013-01-09 14:00:00,37.1,28.6,29.78,WSW,241,11.0,15.0,71,0.00,,---,0.01,VWS V14.01,2013-01-09 22:00:00,
2013-01-09 14:04:00,38.1,29.2,29.76,SW,225,10.0,16.0,70,0.00,,---,0.01,VWS V14.01,2013-01-09 22:04:00,
2013-01-09 14:09:00,38.0,28.4,29.76,SW,222,0.0,16.0,68,0.00,,---,0.01,VWS V14.01,2013-01-09 22:09:00,
2013-01-09 14:14:00,37.7,28.1,29.77,SW,226,7.0,16.0,68,0.00,,---,0.01,VWS V14.01,2013-01-09 22:14:00,
2013-01-09 14:15:00,36.7,28.5,29.79,WSW,240,11.0,16.0,72,0.00,,---,0.01,VWS V14.01,2013-01-09 22:15:00,
2013-01-09 14:19:00,37.5,28.3,29.76,SW,228,4.0,12.0,69,0.00,,---,0.01,VWS V14.01,2013-01-09 22:19:00,
2013-01-09 14:24:00,37.3,28.4,29.77,SW,221,4.0,19.0,70,0.00,,---,0.01,VWS V14.01,2013-01-09 22:24:00,
2013-01-09 14:29:00,37.2,29.0,29.77,South,186,0.0,19.0,72,0.00,,---,0.01,VWS V14.01,2013-01-09 22:29:00,
2013-01-09 14:30:00,36.2,28.4,29.80,WSW,249,5.0,12.0,73,0.00,,---,0.01,VWS V14.01,2013-01-09 22:30:00,
2013-01-09 14:34:00,37.1,28.9,29.77,SW,219,6.0,14.0,72,0.00,,---,0.01,VWS V14.01,2013-01-09 22:34:00,
2013-01-09 14:39:00,37.1,28.9,29.77,South,186,3.0,15.0,72,0.00,,---,0.01,VWS V14.01,2013-01-09 22:39:00,
2013-01-09 14:44:00,37.2,29.4,29.77,SW,236,4.0,15.0,73,0.00,,---,0.01,VWS V14.01,2013-01-09 22:44:00,
2013-01-09 14:45:00,35.7,28.9,29.80,WSW,249,5.0,9.0,76,0.00,,---,0.01,VWS V14.01,2013-01-09 22:45:00,
2013-01-09 14:49:00,37.1,28.9,29.77,SW,233,14.0,14.0,72,0.00,,---,0.01,VWS V14.01,2013-01-09 22:49:00,
2013-01-09 14:54:00,37.1,29.3,29.77,SW,222,10.0,15.0,73,0.00,,---,0.01,VWS V14.01,2013-01-09 22:54:00,
2013-01-09 14:59:00,37.1,28.9,29.78,SW,233,12.0,15.0,72,0.00,,---,0.01,VWS V14.01,2013-01-09 22:59:00,
2013-01-09 15:00:00,35.5,27.4,29.80,WSW,238,14.0,15.0,72,0.00,,---,0.01,VWS V14.01,2013-01-09 23:00:00,
2013-01-09 15:04:00,37.0,29.2,29.78,SW,236,13.0,14.0,73,0.00,,---,0.01,VWS V14.01,2013-01-09 23:04:00,
2013-01-09 15:09:00,36.9,28.7,29.79,SW,222,8.0,16.0,72,0.00,,---,0.01,VWS V14.01,2013-01-09 23:09:00,
2013-01-09 15:14:00,36.8,28.6,29.79,WSW,244,10.0,16.0,72,0.00,,---,0.01,VWS V14.01,2013-01-09 23:14:00,
2013-01-09 15:15:00,35.1,26.7,29.80,WSW,242,9.0,20.0,71,0.00,,---,0.01,VWS V14.01,2013-01-09 23:15:00,
2013-01-09 15:19:00,36.6,28.4,29.79,WSW,245,7.0,12.0,72,0.00,,---,0.01,VWS V14.01,2013-01-09 23:19:00,
2013-01-09 15:24:00,36.4,28.6,29.79,WSW,254,9.0,12.0,73,0.00,,---,0.01,VWS V14.01,2013-01-09 23:24:00,
2013-01-09 15:29:00,36.2,28.4,29.80,WSW,242,8.0,12.0,73,0.00,,---,0.01,VWS V14.01,2013-01-09 23:29:00,
2013-01-09 15:30:00,34.4,27.3,29.81,SW,229,0.0,12.0,75,0.00,,---,0.01,VWS V14.01,2013-01-09 23:30:00,
2013-01-09 15:34:00,36.1,28.6,29.80,WSW,254,6.0,7.0,74,0.00,,---,0.01,VWS V14.01,2013-01-09 23:34:00,
2013-01-09 15:39:00,35.9,28.8,29.80,WSW,254,6.0,9.0,75,0.00,,---,0.01,VWS V14.01,2013-01-09 23:39:00,
2013-01-09 15:44:00,35.7,28.9,29.80,WSW,248,6.0,9.0,76,0.00,,---,0.01,VWS V14.01,2013-01-09 23:44:00,
2013-01-09 15:45:00,34.0,26.6,29.81,SW,228,7.0,8.0,74,0.00,,---,0.01,VWS V14.01,2013-01-09 23:45:00,
2013-01-09 15:49:00,35.7,28.9,29.81,SW,234,10.0,10.0,76,0.00,,---,0.01,VWS V14.01,2013-01-09 23:49:00,
2013-01-09 15:54:00,35.7,28.2,29.81,WSW,238,9.0,13.0,74,0.00,,---,0.01,VWS V14.01,2013-01-09 23:54:00,
2013-01-09 15:59:00,35.6,27.5,29.81,WSW,248,11.0,14.0,72,0.00,,---,0.01,VWS V14.01,2013-01-09 23:59:00,
2013-01-09 16:00:00,34.4,25.3,29.82,SW,215,0.0,14.0,69,0.00,,---,0.01,VWS V14.01,2013-01-10 00:00:00,
2013-01-09 16:04:00,35.7,26.2,29.80,WSW,246,13.0,18.0,68,0.00,,---,0.01,VWS V14.01,2013-01-10 00:04:00,
2013-01-09 16:09:00,35.5,26.4,29.81,WSW,246,10.0,20.0,69,0.00,,---,0.01,VWS V14.01,2013-01-10 00:09:00,
2013-01-09 16:14:00,35.1,26.3,29.81,WSW,248,8.0,20.0,70,0.00,,---,0.01,VWS V14.01,2013-01-10 00:14:00,
2013-01-09 16:15:00,33.9,25.5,29.82,SSW,198,0.0,8.0,71,0.00,,---,0.01,VWS V14.01,2013-01-10 00:15:00,
2013-01-09 16:19:00,34.8,26.7,29.81,SW,236,12.0,12.0,72,0.00,,---,0.01,VWS V14.01,2013-01-10 00:19:00,
2013-01-09 16:24:00,34.6,26.9,29.81,SW,229,0.0,12.0,73,0.00,,---,0.01,VWS V14.01,2013-01-10 00:24:00,
2013-01-09 16:29:00,34.4,27.0,29.81,SW,229,0.0,12.0,74,0.00,,---,0.01,VWS V14.01,2013-01-10 00:29:00,
2013-01-09 16:30:00,33.3,25.6,29.82,SW,234,4.0,8.0,73,0.00,,---,0.01,VWS V14.01,2013-01-10 00:30:00,
2013-01-09 16:34:00,34.3,27.2,29.81,SW,229,0.0,4.0,75,0.00,,---,0.01,VWS V14.01,2013-01-10 00:34:00,
2013-01-09 16:39:00,34.2,26.8,29.82,SW,229,0.0,4.0,74,0.00,,---,0.01,VWS V14.01,2013-01-10 00:39:00,
2013-01-09 16:44:00,34.1,26.4,29.81,SSW,202,0.0,4.0,73,0.00,,---,0.01,VWS V14.01,2013-01-10 00:44:00,
2013-01-09 16:45:00,33.2,25.8,29.83,SW,221,2.0,10.0,74,0.00,,---,0.01,VWS V14.01,2013-01-10 00:45:00,
2013-01-09 16:49:00,34.1,26.0,29.81,SW,233,2.0,7.0,72,0.00,,---,0.01,VWS V14.01,2013-01-10 00:49:00,
2013-01-09 16:54:00,34.4,25.6,29.81,SSW,211,2.0,14.0,70,0.00,,---,0.01,VWS V14.01,2013-01-10 00:54:00,
2013-01-09 16:59:00,34.4,25.0,29.82,SSW,192,0.0,14.0,68,0.00,,---,0.01,VWS V14.01,2013-01-10 00:59:00,
2013-01-09 17:00:00,32.9,25.9,29.83,SW,214,0.0,5.0,75,0.00,,---,0.01,VWS V14.01,2013-01-10 01:00:00,
2013-01-09 17:04:00,34.3,25.2,29.83,South,178,7.0,8.0,69,0.00,,---,0.01,VWS V14.01,2013-01-10 01:04:00,
2013-01-09 17:09:00,34.2,25.1,29.82,SSW,207,0.0,8.0,69,0.00,,---,0.01,VWS V14.01,2013-01-10 01:09:00,
2013-01-09 17:14:00,34.0,25.6,29.82,SSW,200,0.0,8.0,71,0.00,,---,0.01,VWS V14.01,2013-01-10 01:14:00,
2013-01-09 17:15:00,32.7,25.7,29.83,SW,236,0.0,4.0,75,0.00,,---,0.01,VWS V14.01,2013-01-10 01:15:00,
2013-01-09 17:19:00,33.7,26.0,29.82,SW,223,0.0,0.0,73,0.00,,---,0.01,VWS V14.01,2013-01-10 01:19:00,
2013-01-09 17:24:00,33.4,25.7,29.81,SW,229,5.0,8.0,73,0.00,,---,0.01,VWS V14.01,2013-01-10 01:24:00,
2013-01-09 17:29:00,33.3,25.6,29.82,SW,218,4.0,8.0,73,0.00,,---,0.01,VWS V14.01,2013-01-10 01:29:00,
2013-01-09 17:30:00,32.9,25.5,29.83,SW,217,0.0,9.0,74,0.00,,---,0.01,VWS V14.01,2013-01-10 01:30:00,
2013-01-09 17:34:00,33.2,25.5,29.82,WSW,242,7.0,9.0,73,0.00,,---,0.01,VWS V14.01,2013-01-10 01:34:00,
2013-01-09 17:39:00,33.2,25.8,29.83,SW,222,0.0,9.0,74,0.00,,---,0.01,VWS V14.01,2013-01-10 01:39:00,
2013-01-09 17:44:00,33.2,25.8,29.83,SW,218,0.0,10.0,74,0.00,,---,0.01,VWS V14.01,2013-01-10 01:44:00,
2013-01-09 17:45:00,32.5,25.5,29.83,SW,227,3.0,3.0,75,0.00,,---,0.01,VWS V14.01,2013-01-10 01:45:00,
2013-01-09 17:49:00,33.2,25.5,29.83,SW,221,0.0,5.0,73,0.00,,---,0.01,VWS V14.01,2013-01-10 01:49:00,
2013-01-09 17:54:00,33.2,25.8,29.83,SSW,203,0.0,5.0,74,0.00,,---,0.01,VWS V14.01,2013-01-10 01:54:00,
2013-01-09 17:59:00,33.0,26.0,29.83,SSW,213,0.0,5.0,75,0.00,,---,0.01,VWS V14.01,2013-01-10 01:59:00,
2013-01-09 18:00:00,32.3,24.6,29.83,WSW,240,0.0,6.0,73,0.00,,---,0.01,VWS V14.01,2013-01-10 02:00:00,
2013-01-09 18:04:00,32.8,25.8,29.83,SSW,210,0.0,0.0,75,0.00,,---,0.01,VWS V14.01,2013-01-10 02:04:00,
2013-01-09 18:09:00,32.8,25.8,29.83,SW,215,0.0,0.0,75,0.00,,---,0.01,VWS V14.01,2013-01-10 02:09:00,
2013-01-09 18:14:00,32.7,25.7,29.83,SW,234,0.0,0.0,75,0.00,,---,0.01,VWS V14.01,2013-01-10 02:14:00,
2013-01-09 18:15:00,32.2,24.5,29.84,WSW,241,0.0,0.0,73,0.00,,---,0.01,VWS V14.01,2013-01-10 02:15:00,
2013-01-09 18:19:00,32.9,24.5,29.83,WSW,241,5.0,9.0,71,0.00,,---,0.01,VWS V14.01,2013-01-10 02:19:00,
2013-01-09 18:24:00,33.1,24.7,29.84,SSW,202,0.0,9.0,71,0.00,,---,0.01,VWS V14.01,2013-01-10 02:24:00,
2013-01-09 18:29:00,32.9,25.5,29.83,SSW,200,0.0,9.0,74,0.00,,---,0.01,VWS V14.01,2013-01-10 02:29:00,
2013-01-09 18:30:00,31.8,24.1,29.85,WSW,239,0.0,0.0,73,0.00,,---,0.01,VWS V14.01,2013-01-10 02:30:00,
2013-01-09 18:34:00,32.8,25.4,29.83,SSW,208,0.0,0.0,74,0.00,,---,0.01,VWS V14.01,2013-01-10 02:34:00,
2013-01-09 18:39:00,32.6,25.6,29.83,SW,232,0.0,2.0,75,0.00,,---,0.01,VWS V14.01,2013-01-10 02:39:00,
2013-01-09 18:44:00,32.5,25.5,29.83,SW,226,0.0,3.0,75,0.00,,---,0.01,VWS V14.01,2013-01-10 02:44:00,
2013-01-09 18:45:00,31.4,24.4,29.84,WSW,246,0.0,3.0,75,0.00,,---,0.01,VWS V14.01,2013-01-10 02:45:00,
2013-01-09 18:49:00,32.5,25.1,29.83,SW,236,5.0,6.0,74,0.00,,---,0.01,VWS V14.01,2013-01-10 02:49:00,
2013-01-09 18:54:00,32.5,25.1,29.83,WSW,240,0.0,6.0,74,0.00,,---,0.01,VWS V14.01,2013-01-10 02:54:00,
2013-01-09 18:59:00,32.3,25.0,29.83,WSW,240,0.0,6.0,74,0.00,,---,0.01,VWS V14.01,2013-01-10 02:59:00,
2013-01-09 19:00:00,31.7,23.7,29.85,West,265,0.0,7.0,72,0.00,,---,0.01,VWS V14.01,2013-01-10 03:00:00,
2013-01-09 19:04:00,32.3,24.6,29.83,WSW,241,0.0,0.0,73,0.00,,---,0.01,VWS V14.01,2013-01-10 03:04:00,
2013-01-09 19:09:00,32.3,24.6,29.83,WSW,241,0.0,0.0,73,0.00,,---,0.01,VWS V14.01,2013-01-10 03:09:00,
2013-01-09 19:14:00,32.2,24.5,29.84,WSW,241,0.0,0.0,73,0.00,,---,0.01,VWS V14.01,2013-01-10 03:14:00,
2013-01-09 19:15:00,31.7,23.7,29.85,West,259,6.0,7.0,72,0.00,,---,0.01,VWS V14.01,2013-01-10 03:15:00,
2013-01-09 19:19:00,32.1,24.8,29.85,WSW,241,0.0,0.0,74,0.00,,---,0.01,VWS V14.01,2013-01-10 03:19:00,
2013-01-09 19:24:00,32.0,24.7,29.85,WSW,241,0.0,0.0,74,0.00,,---,0.01,VWS V14.01,2013-01-10 03:24:00,
2013-01-09 19:29:00,31.9,24.6,29.85,WSW,240,0.0,0.0,74,0.00,,---,0.01,VWS V14.01,2013-01-10 03:29:00,
2013-01-09 19:30:00,31.2,24.5,29.85,SW,227,0.0,6.0,76,0.00,,---,0.01,VWS V14.01,2013-01-10 03:30:00,
2013-01-09 19:34:00,31.8,24.1,29.85,WSW,239,0.0,0.0,73,0.00,,---,0.01,VWS V14.01,2013-01-10 03:34:00,
2013-01-09 19:39:00,31.6,24.3,29.85,WSW,238,0.0,3.0,74,0.00,,---,0.01,VWS V14.01,2013-01-10 03:39:00,
2013-01-09 19:44:00,31.4,24.1,29.84,WSW,240,0.0,3.0,74,0.00,,---,0.01,VWS V14.01,2013-01-10 03:44:00,
2013-01-09 19:45:00,30.1,24.4,29.85,SW,226,0.0,0.0,79,0.00,,---,0.01,VWS V14.01,2013-01-10 03:45:00,
2013-01-09 19:49:00,31.2,24.2,29.84,West,267,5.0,7.0,75,0.00,,---,0.01,VWS V14.01,2013-01-10 03:49:00,
2013-01-09 19:54:00,31.4,23.8,29.84,West,265,4.0,7.0,73,0.00,,---,0.01,VWS V14.01,2013-01-10 03:54:00,
2013-01-09 19:59:00,31.6,23.6,29.85,West,267,2.0,7.0,72,0.00,,---,0.01,VWS V14.01,2013-01-10 03:59:00,
2013-01-09 20:00:00,30.1,23.8,29.86,SW,226,0.0,2.0,77,0.00,,---,0.01,VWS V14.01,2013-01-10 04:00:00,
2013-01-09 20:04:00,31.7,23.4,29.85,West,268,0.0,6.0,71,0.00,,---,0.01,VWS V14.01,2013-01-10 04:04:00,
2013-01-09 20:09:00,31.7,23.4,29.85,West,268,0.0,6.0,71,0.00,,---,0.01,VWS V14.01,2013-01-10 04:09:00,
2013-01-09 20:14:00,31.7,23.7,29.85,West,264,4.0,7.0,72,0.00,,---,0.01,VWS V14.01,2013-01-10 04:14:00,
2013-01-09 20:15:00,29.7,22.8,29.86,SW,230,0.0,0.0,75,0.00,,---,0.01,VWS V14.01,2013-01-10 04:15:00,
2013-01-09 20:19:00,31.7,23.7,29.86,WSW,251,5.0,6.0,72,0.00,,---,0.01,VWS V14.01,2013-01-10 04:19:00,
2013-01-09 20:24:00,31.7,24.4,29.86,WSW,238,0.0,6.0,74,0.00,,---,0.01,VWS V14.01,2013-01-10 04:24:00,
2013-01-09 20:29:00,31.3,24.3,29.85,SW,226,0.0,6.0,75,0.00,,---,0.01,VWS V14.01,2013-01-10 04:29:00,
2013-01-09 20:30:00,29.5,22.2,29.87,WSW,257,0.0,5.0,74,0.00,,---,0.01,VWS V14.01,2013-01-10 04:30:00,
2013-01-09 20:34:00,31.0,24.6,29.85,SW,226,0.0,0.0,77,0.00,,---,0.01,VWS V14.01,2013-01-10 04:34:00,
2013-01-09 20:39:00,30.7,24.7,29.85,SW,227,0.0,0.0,78,0.00,,---,0.01,VWS V14.01,2013-01-10 04:39:00,
2013-01-09 20:44:00,30.1,24.4,29.85,SW,227,0.0,0.0,79,0.00,,---,0.01,VWS V14.01,2013-01-10 04:44:00,
2013-01-09 20:45:00,29.3,22.1,29.87,West,259,0.0,0.0,74,0.00,,---,0.01,VWS V14.01,2013-01-10 04:45:00,
2013-01-09 20:49:00,30.1,24.4,29.86,SW,227,0.0,0.0,79,0.00,,---,0.01,VWS V14.01,2013-01-10 04:49:00,
2013-01-09 20:54:00,30.1,24.1,29.86,SW,227,0.0,0.0,78,0.00,,---,0.01,VWS V14.01,2013-01-10 04:54:00,
2013-01-09 20:59:00,30.1,23.8,29.86,SW,226,0.0,2.0,77,0.00,,---,0.01,VWS V14.01,2013-01-10 04:59:00,
2013-01-09 21:00:00,30.1,23.8,29.86,SW,227,0.0,2.0,77,0.00,,---,0.01,VWS V14.01,2013-01-10 05:00:00,
2013-01-09 21:05:00,30.0,23.7,29.86,SW,226,0.0,0.0,77,0.00,,---,0.01,VWS V14.01,2013-01-10 05:05:00,
2013-01-09 21:10:00,29.9,23.6,29.86,SW,230,0.0,0.0,77,0.00,,---,0.01,VWS V14.01,2013-01-10 05:10:00,
2013-01-09 21:15:00,29.7,22.8,29.86,SW,230,0.0,0.0,75,0.00,,---,0.01,VWS V14.01,2013-01-10 05:15:00,
2013-01-09 21:20:00,29.6,22.0,29.86,WSW,258,4.0,5.0,73,0.00,,---,0.01,VWS V14.01,2013-01-10 05:20:00,
2013-01-09 21:25:00,29.4,22.1,29.87,WSW,258,0.0,5.0,74,0.00,,---,0.01,VWS V14.01,2013-01-10 05:25:00,
2013-01-09 21:30:00,29.5,22.2,29.87,WSW,257,0.0,5.0,74,0.00,,---,0.01,VWS V14.01,2013-01-10 05:30:00,
2013-01-09 21:35:00,29.4,22.1,29.87,WSW,258,0.0,0.0,74,0.00,,---,0.01,VWS V14.01,2013-01-10 05:35:00,
2013-01-09 21:40:00,29.3,22.4,29.87,West,259,0.0,0.0,75,0.00,,---,0.01,VWS V14.01,2013-01-10 05:40:00,
2013-01-09 21:45:00,29.3,22.1,29.87,West,259,0.0,0.0,74,0.00,,---,0.01,VWS V14.01,2013-01-10 05:45:00,
2013-01-09 21:50:00,29.3,22.1,29.87,West,259,0.0,0.0,74,0.00,,---,0.01,VWS V14.01,2013-01-10 05:50:00,
2013-01-09 21:55:00,29.4,21.5,29.87,West,259,0.0,0.0,72,0.00,,---,0.01,VWS V14.01,2013-01-10 05:55:00,
2013-01-09 22:00:00,29.6,21.4,29.86,West,259,0.0,0.0,71,0.00,,---,0.01,VWS V14.01,2013-01-10 06:00:00,
2013-01-09 22:05:00,29.6,21.0,29.86,WSW,240,0.0,0.0,70,0.00,,---,0.01,VWS V14.01,2013-01-10 06:05:00,
2013-01-09 22:10:00,29.2,21.6,29.86,SW,231,0.0,0.0,73,0.00,,---,0.01,VWS V14.01,2013-01-10 06:10:00,
2013-01-09 22:15:00,29.3,21.1,29.86,SW,228,0.0,0.0,71,0.00,,---,0.01,VWS V14.01,2013-01-10 06:15:00,
2013-01-09 22:20:00,29.4,21.2,29.86,SW,227,0.0,0.0,71,0.00,,---,0.01,VWS V14.01,2013-01-10 06:20:00,
2013-01-09 22:25:00,29.6,21.0,29.86,SW,227,0.0,4.0,70,0.00,,---,0.01,VWS V14.01,2013-01-10 06:25:00,
2013-01-09 22:30:00,29.6,21.0,29.86,SW,225,0.0,4.0,70,0.00,,---,0.01,VWS V14.01,2013-01-10 06:30:00,
2013-01-09 22:35:00,29.8,20.9,29.86,SW,226,0.0,4.0,69,0.00,,---,0.01,VWS V14.01,2013-01-10 06:35:00,
2013-01-09 22:40:00,29.9,21.0,29.86,SW,226,0.0,4.0,69,0.00,,---,0.01,VWS V14.01,2013-01-10 06:40:00,
2013-01-09 22:45:00,29.9,21.0,29.87,SW,226,0.0,4.0,69,0.00,,---,0.01,VWS V14.01,2013-01-10 06:45:00,
2013-01-09 22:50:00,29.8,20.9,29.87,SW,226,0.0,0.0,69,0.00,,---,0.01,VWS V14.01,2013-01-10 06:50:00,
2013-01-09 22:55:00,29.9,20.6,29.87,SW,236,5.0,5.0,68,0.00,,---,0.01,VWS V14.01,2013-01-10 06:55:00,
2013-01-09 23:00:00,29.8,20.9,29.87,SW,227,0.0,6.0,69,0.00,,---,0.01,VWS V14.01,2013-01-10 07:00:00,
2013-01-09 23:05:00,29.5,20.9,29.87,SW,227,0.0,0.0,70,0.00,,---,0.01,VWS V14.01,2013-01-10 07:05:00,
2013-01-09 23:10:00,29.2,21.0,29.87,SW,227,0.0,0.0,71,0.00,,---,0.01,VWS V14.01,2013-01-10 07:10:00,
2013-01-09 23:15:00,28.8,21.2,29.87,SW,227,0.0,0.0,73,0.00,,---,0.01,VWS V14.01,2013-01-10 07:15:00,
2013-01-09 23:20:00,28.4,20.9,29.87,SW,227,0.0,0.0,73,0.00,,---,0.01,VWS V14.01,2013-01-10 07:20:00,
2013-01-09 23:25:00,28.0,21.4,29.87,SW,225,0.0,0.0,76,0.00,,---,0.01,VWS V14.01,2013-01-10 07:25:00,
2013-01-09 23:30:00,27.9,21.3,29.87,SW,222,0.0,0.0,76,0.00,,---,0.01,VWS V14.01,2013-01-10 07:30:00,
2013-01-09 23:35:00,27.9,21.3,29.87,SW,222,0.0,0.0,76,0.00,,---,0.01,VWS V14.01,2013-01-10 07:35:00,
2013-01-09 23:40:00,27.8,21.5,29.87,SW,222,0.0,0.0,77,0.00,,---,0.01,VWS V14.01,2013-01-10 07:40:00,
2013-01-09 23:45:00,27.2,21.3,29.87,SW,223,0.0,0.0,78,0.00,,---,0.01,VWS V14.01,2013-01-10 07:45:00,
2013-01-09 23:50:00,27.1,21.2,29.86,SW,223,0.0,0.0,78,0.00,,---,0.01,VWS V14.01,2013-01-10 07:50:00,
2013-01-09 23:55:00,27.0,21.1,29.87,SW,223,0.0,0.0,78,0.00,,---,0.01,VWS V14.01,2013-01-10 07:55:00,